Time;durP1;ratioP1;P1;durP2;ratioP2;P2;SDS_P1;SDS_P2;PMS_P1;PMS_P2;Temp;Humidity;BMP_temperature;BMP_pressure;BME280_temperature;BME280_humidity;BME280_pressure;Samples;Min_cycle;Max_cycle;Signal;HPM_P1;HPM_P2
2023/12/12 00:01:03;;;;;;;4.60;1.70;;;8.90;1.00;;;;;;5098138;28;20560;-46
2023/12/12 00:03:29;;;;;;;6.20;2.30;;;8.80;1.00;;;;;;5113863;28;20218;-46
2023/12/12 00:05:54;;;;;;;4.83;2.23;;;8.90;1.00;;;;;;5114895;28;20199;-45
2023/12/12 00:08:20;;;;;;;4.60;1.87;;;8.80;1.00;;;;;;5115226;28;20204;-45
2023/12/12 00:10:46;;;;;;;11.10;2.50;;;8.80;1.00;;;;;;5097630;28;20187;-45
2023/12/12 00:13:11;;;;;;;4.13;1.80;;;8.80;1.00;;;;;;5115178;28;20175;-46
2023/12/12 00:15:37;;;;;;;4.30;2.00;;;8.80;1.00;;;;;;5113046;28;20538;-45
2023/12/12 00:18:03;;;;;;;4.30;1.97;;;8.80;11.40;;;;;;5116744;28;20172;-46
2023/12/12 00:20:28;;;;;;;5.53;2.23;;;8.80;38.00;;;;;;5116289;28;20233;-46
2023/12/12 00:22:54;;;;;;;5.83;2.20;;;8.80;49.30;;;;;;5096929;28;20175;-46
2023/12/12 00:25:21;;;;;;;5.60;1.83;;;8.80;77.30;;;;;;5115260;28;20592;-46
2023/12/12 00:27:48;;;;;;;5.20;2.30;;;8.80;99.90;;;;;;5114469;28;20710;-46
2023/12/12 00:30:13;;;;;;;8.07;2.83;;;8.70;99.90;;;;;;5115189;28;20470;-46
2023/12/12 00:32:39;;;;;;;12.37;3.30;;;8.70;99.90;;;;;;5116171;28;20687;-42
2023/12/12 00:35:06;;;;;;;7.80;2.70;;;8.70;99.90;;;;;;5115680;28;20453;-41
2023/12/12 00:37:32;;;;;;;5.30;2.87;;;8.90;1.00;;;;;;5116430;28;20491;-41
2023/12/12 00:39:57;;;;;;;7.70;2.17;;;9.20;99.90;;;;;;5113483;28;20432;-42
2023/12/12 00:42:38;;;;;;;5.20;2.17;;;9.50;1.00;;;;;;5116021;28;20408;-41
2023/12/12 00:45:04;;;;;;;5.70;2.90;;;9.80;1.00;;;;;;5113894;28;20512;-41
2023/12/12 00:47:30;;;;;;;6.10;2.80;;;10.10;1.00;;;;;;5115457;28;20245;-41
2023/12/12 00:49:57;;;;;;;4.33;2.23;;;10.30;1.00;;;;;;5114446;28;20507;-43
2023/12/12 00:52:23;;;;;;;8.60;3.13;;;10.60;1.00;;;;;;5115578;28;20546;-43
2023/12/12 00:54:49;;;;;;;5.77;3.73;;;10.70;1.00;;;;;;5115053;28;20739;-41
2023/12/12 00:57:15;;;;;;;7.20;2.20;;;10.90;1.00;;;;;;5115363;28;20506;-42
2023/12/12 00:59:41;;;;;;;4.07;2.33;;;11.10;1.00;;;;;;5097762;28;20425;-43
2023/12/12 01:02:06;;;;;;;7.07;2.67;;;11.20;1.00;;;;;;5097432;28;20194;-40
2023/12/12 01:04:34;;;;;;;8.43;2.53;;;11.30;1.00;;;;;;5116483;28;20498;-41
2023/12/12 01:07:00;;;;;;;8.10;2.97;;;11.40;1.00;;;;;;5115067;28;20243;-43
2023/12/12 01:09:25;;;;;;;4.57;2.20;;;11.50;99.90;;;;;;5115092;28;20527;-45
2023/12/12 01:11:51;;;;;;;5.17;2.17;;;11.60;99.90;;;;;;5114508;28;20868;-38
2023/12/12 01:14:17;;;;;;;4.43;2.40;;;11.60;99.90;;;;;;5116157;28;20179;-38
2023/12/12 01:16:42;;;;;;;5.40;2.23;;;11.50;68.40;;;;;;5116155;28;20203;-39
2023/12/12 01:19:08;;;;;;;2.50;1.97;;;11.30;1.00;;;;;;5115481;28;20511;-38
2023/12/12 01:21:34;;;;;;;4.10;2.00;;;11.10;99.90;;;;;;5114922;28;20191;-37
2023/12/12 01:23:59;;;;;;;3.93;2.37;;;10.90;1.00;;;;;;5115188;28;20201;-40
2023/12/12 01:26:25;;;;;;;4.77;2.30;;;10.70;99.90;;;;;;5117100;28;20206;-37
2023/12/12 01:28:51;;;;;;;4.93;3.30;;;10.60;99.90;;;;;;5101685;28;20203;-37
2023/12/12 01:31:18;;;;;;;4.50;2.70;;;10.40;1.00;;;;;;5119030;28;20164;-37
2023/12/12 01:33:44;;;;;;;6.00;2.00;;;10.30;1.00;;;;;;5118181;28;20486;-37
2023/12/12 01:36:10;;;;;;;5.23;2.10;;;10.20;1.00;;;;;;5118777;28;20930;-38
2023/12/12 01:38:35;;;;;;;3.40;1.97;;;10.10;1.00;;;;;;5120257;28;20424;-38
2023/12/12 01:41:01;;;;;;;3.27;1.90;;;10.00;1.00;;;;;;5123022;28;20429;-39
2023/12/12 01:43:28;;;;;;;4.10;2.20;;;9.90;1.00;;;;;;5118437;28;20421;-37
2023/12/12 01:45:56;;;;;;;5.10;1.63;;;9.80;1.00;;;;;;5119139;28;20172;-37
2023/12/12 01:48:23;;;;;;;5.40;1.77;;;9.70;1.00;;;;;;5119400;28;20911;-44
2023/12/12 01:50:50;;;;;;;3.53;1.77;;;9.60;1.00;;;;;;5118907;28;20473;-44
2023/12/12 01:53:19;;;;;;;4.50;1.87;;;9.60;1.00;;;;;;5117045;28;20468;-44
2023/12/12 01:55:45;;;;;;;2.77;1.60;;;9.50;1.00;;;;;;5099716;28;20426;-44
2023/12/12 01:58:11;;;;;;;3.20;1.80;;;9.40;1.00;;;;;;5099704;28;20471;-44
2023/12/12 02:00:37;;;;;;;4.43;1.83;;;9.40;32.10;;;;;;5100046;28;20425;-44
2023/12/12 02:03:02;;;;;;;4.57;1.70;;;9.30;82.40;;;;;;5118110;28;20417;-44
2023/12/12 02:05:29;;;;;;;2.83;1.70;;;9.30;99.90;;;;;;5117592;28;20263;-44
2023/12/12 02:07:55;;;;;;;3.20;1.87;;;9.20;99.90;;;;;;5117878;28;20249;-44
2023/12/12 02:10:21;;;;;;;4.40;1.80;;;9.20;99.90;;;;;;5118134;28;20473;-44
2023/12/12 02:12:47;;;;;;;3.80;1.60;;;9.10;99.90;;;;;;5098929;28;20515;-44
2023/12/12 02:15:14;;;;;;;5.37;1.90;;;9.10;99.90;;;;;;5118121;28;20406;-44
2023/12/12 02:17:40;;;;;;;3.70;1.90;;;9.00;99.90;;;;;;5100432;28;20405;-45
2023/12/12 02:20:06;;;;;;;3.23;2.13;;;9.00;99.90;;;;;;5118081;28;20449;-44
2023/12/12 02:22:32;;;;;;;6.23;1.73;;;8.90;99.90;;;;;;5118211;28;20597;-44
2023/12/12 02:24:57;;;;;;;3.27;1.70;;;8.90;99.90;;;;;;5117923;28;20476;-44
2023/12/12 02:27:23;;;;;;;3.90;1.90;;;8.80;99.90;;;;;;5100203;28;20226;-44
2023/12/12 02:29:48;;;;;;;4.03;1.87;;;8.80;99.90;;;;;;5118024;28;20214;-44
2023/12/12 02:32:16;;;;;;;3.63;2.20;;;8.70;99.90;;;;;;5118134;28;20183;-44
2023/12/12 02:34:42;;;;;;;6.70;1.67;;;8.70;1.00;;;;;;5117526;28;20172;-44
2023/12/12 02:37:08;;;;;;;2.73;2.10;;;8.70;1.00;;;;;;5117304;28;20425;-44
2023/12/12 02:39:34;;;;;;;3.47;2.40;;;8.70;1.00;;;;;;5116554;28;20424;-44
2023/12/12 02:42:00;;;;;;;2.47;1.67;;;8.70;1.00;;;;;;5117626;28;20173;-43
2023/12/12 02:44:25;;;;;;;5.77;2.10;;;8.60;1.00;;;;;;5117586;28;20418;-44
2023/12/12 02:46:51;;;;;;;2.50;1.70;;;8.60;1.00;;;;;;5117835;28;20187;-44
2023/12/12 02:49:16;;;;;;;2.87;2.00;;;8.60;1.00;;;;;;5117477;28;20200;-44
2023/12/12 02:51:42;;;;;;;2.90;1.60;;;8.50;1.00;;;;;;5118079;28;20221;-43
2023/12/12 02:54:08;;;;;;;2.83;1.77;;;8.50;1.00;;;;;;5117630;28;20183;-45
2023/12/12 02:56:33;;;;;;;3.20;1.70;;;8.50;1.00;;;;;;5117812;28;20175;-44
2023/12/12 02:58:59;;;;;;;4.10;1.80;;;8.50;1.00;;;;;;5117059;28;20195;-45
2023/12/12 03:01:25;;;;;;;2.50;1.80;;;8.50;1.00;;;;;;5117085;28;20183;-44
2023/12/12 03:03:51;;;;;;;3.53;2.00;;;8.50;1.00;;;;;;5117663;28;20441;-44
2023/12/12 03:06:17;;;;;;;6.90;1.80;;;8.50;1.00;;;;;;5117454;28;20256;-44
2023/12/12 03:08:43;;;;;;;6.80;1.90;;;8.50;1.00;;;;;;5117417;28;20199;-44
2023/12/12 03:11:58;;;;;;;3.80;1.90;;;8.50;1.00;;;;;;5117583;28;20445;-44
2023/12/12 03:14:30;;;;;;;3.20;1.60;;;8.50;1.00;;;;;;5117486;28;20180;-44
2023/12/12 03:16:56;;;;;;;3.97;1.50;;;8.50;1.00;;;;;;5116867;28;20507;-44
2023/12/12 03:19:22;;;;;;;2.33;1.80;;;8.50;1.00;;;;;;5116370;28;20501;-44
2023/12/12 03:21:48;;;;;;;4.43;1.87;;;8.50;1.00;;;;;;5116842;28;20433;-43
2023/12/12 03:24:14;;;;;;;3.53;1.43;;;8.50;1.00;;;;;;5116131;28;20703;-44
2023/12/12 03:26:40;;;;;;;2.20;1.50;;;8.50;1.00;;;;;;5115725;28;20488;-44
2023/12/12 03:29:05;;;;;;;4.90;2.40;;;8.50;1.00;;;;;;5116445;28;20500;-44
2023/12/12 03:31:31;;;;;;;7.00;1.83;;;8.50;1.00;;;;;;5117449;28;20227;-44
2023/12/12 03:33:57;;;;;;;3.10;1.50;;;8.50;1.00;;;;;;5117001;28;20463;-44
2023/12/12 03:36:22;;;;;;;3.20;2.00;;;8.50;99.90;;;;;;5116081;28;20176;-45
2023/12/12 03:38:48;;;;;;;3.77;1.50;;;8.50;99.90;;;;;;5116496;28;20262;-44
2023/12/12 03:41:14;;;;;;;2.93;1.60;;;8.50;99.90;;;;;;5116579;28;20214;-44
2023/12/12 03:43:39;;;;;;;2.47;1.43;;;8.40;99.90;;;;;;5115690;28;20293;-44
2023/12/12 03:46:05;;;;;;;3.10;1.80;;;8.40;99.90;;;;;;5116117;28;20202;-45
2023/12/12 03:48:31;;;;;;;3.60;1.70;;;8.40;99.90;;;;;;5116846;28;20211;-44
2023/12/12 03:50:57;;;;;;;2.53;1.50;;;8.40;99.90;;;;;;5115830;28;20266;-44
2023/12/12 03:53:24;;;;;;;3.20;1.80;;;8.40;99.90;;;;;;5115826;28;20611;-44
2023/12/12 03:55:49;;;;;;;2.73;1.50;;;8.40;99.90;;;;;;5098552;28;20482;-44
2023/12/12 03:58:15;;;;;;;4.00;1.43;;;8.40;99.90;;;;;;5115142;28;20425;-44
2023/12/12 04:00:40;;;;;;;3.30;1.50;;;8.30;99.90;;;;;;5115871;28;20183;-44
2023/12/12 04:03:06;;;;;;;2.63;1.40;;;8.30;1.00;;;;;;5116483;28;20256;-44
2023/12/12 04:05:32;;;;;;;3.47;1.63;;;8.30;1.00;;;;;;5116052;28;20266;-44
2023/12/12 04:07:57;;;;;;;2.83;1.20;;;8.30;1.00;;;;;;5116604;28;20179;-44
2023/12/12 04:10:23;;;;;;;4.00;1.70;;;8.30;1.00;;;;;;5115634;28;20218;-43
2023/12/12 04:12:48;;;;;;;3.60;1.60;;;8.30;1.00;;;;;;5116279;28;20280;-44
2023/12/12 04:15:14;;;;;;;3.20;1.83;;;8.30;1.00;;;;;;5115677;28;20179;-45
2023/12/12 04:17:40;;;;;;;3.17;1.50;;;8.20;1.00;;;;;;5115739;28;20608;-44
2023/12/12 04:20:06;;;;;;;3.00;1.43;;;8.20;1.00;;;;;;5116204;28;20188;-44
2023/12/12 04:22:32;;;;;;;3.43;1.30;;;8.20;1.00;;;;;;5116154;28;20548;-44
2023/12/12 04:24:57;;;;;;;5.97;1.10;;;8.20;1.00;;;;;;5115786;28;20448;-42
2023/12/12 04:27:23;;;;;;;3.40;1.50;;;8.20;1.00;;;;;;5116137;28;20202;-44
2023/12/12 04:29:48;;;;;;;2.50;1.40;;;8.20;1.00;;;;;;5097613;28;20282;-44
2023/12/12 04:32:15;;;;;;;5.47;2.23;;;8.10;1.00;;;;;;5114472;28;20183;-44
2023/12/12 04:34:41;;;;;;;4.03;2.80;;;8.20;1.00;;;;;;5113839;28;20176;-44
2023/12/12 04:37:07;;;;;;;4.13;1.60;;;8.20;1.00;;;;;;5113843;28;20421;-44
2023/12/12 04:39:33;;;;;;;1.77;1.40;;;8.10;1.00;;;;;;5115099;28;20429;-44
2023/12/12 04:41:58;;;;;;;4.23;1.70;;;8.20;1.00;;;;;;5115430;28;20472;-44
2023/12/12 04:44:24;;;;;;;3.17;1.37;;;8.20;1.00;;;;;;5115445;28;20421;-45
2023/12/12 04:46:50;;;;;;;3.40;1.67;;;8.10;1.00;;;;;;5113930;28;20217;-44
2023/12/12 04:49:16;;;;;;;2.80;1.23;;;8.20;1.00;;;;;;5113305;28;20266;-44
2023/12/12 04:51:42;;;;;;;2.20;1.30;;;8.20;1.00;;;;;;5113163;28;20204;-44
2023/12/12 04:54:08;;;;;;;3.37;1.53;;;8.20;1.00;;;;;;5114106;28;20451;-44
2023/12/12 04:56:33;;;;;;;3.40;1.67;;;8.20;1.00;;;;;;5113050;28;20477;-44
2023/12/12 04:58:59;;;;;;;4.03;1.90;;;8.20;1.00;;;;;;5113101;28;20233;-44
2023/12/12 05:01:26;;;;;;;2.33;1.50;;;8.20;1.00;;;;;;5114675;28;20241;-44
2023/12/12 05:03:52;;;;;;;1.97;1.30;;;8.20;1.00;;;;;;5100576;28;20180;-44
2023/12/12 05:06:18;;;;;;;2.70;1.33;;;8.30;1.00;;;;;;5117416;28;21245;-44
2023/12/12 05:08:44;;;;;;;5.30;1.70;;;8.30;1.00;;;;;;5117179;28;20608;-44
2023/12/12 05:14:34;;;;;;;2.10;1.30;;;8.30;1.00;;;;;;5050563;28;20547;-44
2023/12/12 05:16:59;;;;;;;1.93;1.40;;;8.30;1.00;;;;;;5097996;28;20511;-44
2023/12/12 05:19:25;;;;;;;2.93;1.40;;;8.30;1.00;;;;;;5096531;28;20446;-44
2023/12/12 05:25:12;;;;;;;2.37;1.57;;;8.30;1.00;;;;;;5096259;28;20586;-44
2023/12/12 05:27:38;;;;;;;2.47;1.30;;;8.30;1.00;;;;;;5095438;28;20504;-44
2023/12/12 05:30:04;;;;;;;2.37;1.13;;;8.30;1.00;;;;;;5096165;28;20289;-44
2023/12/12 05:32:30;;;;;;;2.00;1.53;;;8.40;1.00;;;;;;5097307;28;20440;-44
2023/12/12 05:34:56;;;;;;;3.50;1.57;;;8.40;1.00;;;;;;5096489;28;20600;-44
2023/12/12 05:37:21;;;;;;;3.87;1.63;;;8.40;1.00;;;;;;5094055;28;20177;-44
2023/12/12 05:39:47;;;;;;;3.43;2.20;;;8.40;1.00;;;;;;5089606;28;20547;-45
2023/12/12 05:42:12;;;;;;;4.23;2.00;;;8.40;1.00;;;;;;5096218;28;20177;-43
2023/12/12 05:44:38;;;;;;;2.80;1.90;;;8.40;1.00;;;;;;5096813;28;20665;-44
2023/12/12 05:47:04;;;;;;;4.30;2.00;;;8.40;1.00;;;;;;5096681;28;20184;-44
2023/12/12 05:49:29;;;;;;;5.17;1.80;;;8.40;1.00;;;;;;5095389;28;20236;-44
2023/12/12 05:51:55;;;;;;;2.20;1.60;;;8.40;1.00;;;;;;5095104;28;20184;-44
2023/12/12 05:54:21;;;;;;;2.40;1.67;;;8.40;1.00;;;;;;5094667;28;20470;-44
2023/12/12 05:56:47;;;;;;;4.50;2.37;;;8.40;1.00;;;;;;5092442;28;20422;-44
2023/12/12 05:59:15;;;;;;;2.37;1.93;;;8.40;1.00;;;;;;5091160;28;20540;-44
2023/12/12 06:01:41;;;;;;;4.17;2.07;;;8.50;1.00;;;;;;5094458;28;20474;-44
2023/12/12 06:04:11;;;;;;;4.00;1.70;;;8.50;1.00;;;;;;5091786;28;20435;-44
2023/12/12 06:06:43;;;;;;;4.57;2.30;;;8.50;1.00;;;;;;5094157;28;20426;-44
2023/12/12 06:09:13;;;;;;;4.07;2.17;;;8.50;1.00;;;;;;5088991;28;20527;-44
2023/12/12 06:11:40;;;;;;;2.97;1.80;;;8.50;1.00;;;;;;5093900;28;20406;-44
2023/12/12 06:14:06;;;;;;;4.10;1.80;;;8.60;1.00;;;;;;5084976;28;20434;-44
2023/12/12 06:16:33;;;;;;;2.43;1.93;;;8.60;1.00;;;;;;5090782;28;20470;-44
2023/12/12 06:18:58;;;;;;;2.60;2.10;;;8.60;1.00;;;;;;5089878;28;20551;-45
2023/12/12 06:21:24;;;;;;;7.63;2.00;;;8.60;1.00;;;;;;5089796;28;20655;-45
2023/12/12 06:23:49;;;;;;;2.53;2.20;;;8.60;1.00;;;;;;5086112;28;20564;-45
2023/12/12 06:26:15;;;;;;;2.90;1.60;;;8.60;1.00;;;;;;5092585;28;20184;-45
2023/12/12 06:28:41;;;;;;;3.00;1.53;;;8.60;1.00;;;;;;5094660;28;20278;-45
2023/12/12 06:31:07;;;;;;;2.80;2.10;;;8.60;1.00;;;;;;5091071;28;20276;-45
2023/12/12 06:33:33;;;;;;;4.20;1.80;;;8.70;99.90;;;;;;5095311;28;20429;-45
2023/12/12 06:35:59;;;;;;;3.70;1.90;;;8.70;1.00;;;;;;5095684;28;20422;-45
2023/12/12 06:38:25;;;;;;;4.07;2.07;;;8.70;1.00;;;;;;5093603;28;20429;-45
2023/12/12 06:40:51;;;;;;;3.00;1.93;;;8.70;1.00;;;;;;5092424;28;20271;-45
2023/12/12 06:43:17;;;;;;;3.33;1.83;;;8.70;1.00;;;;;;5090307;28;20884;-45
2023/12/12 06:45:42;;;;;;;5.20;1.87;;;8.80;1.00;;;;;;5091436;28;20478;-46
2023/12/12 06:48:09;;;;;;;3.10;1.97;;;8.80;1.00;;;;;;5090452;28;20485;-45
2023/12/12 06:50:34;;;;;;;3.17;2.30;;;8.80;1.00;;;;;;5090931;28;20204;-45
2023/12/12 06:53:00;;;;;;;3.17;2.03;;;8.80;1.00;;;;;;5091235;28;20771;-45
2023/12/12 06:55:25;;;;;;;2.60;2.00;;;8.80;1.00;;;;;;5091210;28;20184;-45
2023/12/12 06:57:51;;;;;;;2.50;2.10;;;8.80;1.00;;;;;;5092641;28;20258;-45
2023/12/12 07:00:17;;;;;;;3.53;2.00;;;8.90;1.00;;;;;;5094843;28;20184;-45
2023/12/12 07:02:43;;;;;;;3.50;2.47;;;8.90;1.00;;;;;;5094134;28;20192;-45
2023/12/12 07:05:08;;;;;;;4.37;2.30;;;8.90;1.00;;;;;;5090537;28;20536;-46
2023/12/12 07:07:34;;;;;;;4.20;2.20;;;8.90;1.00;;;;;;5091667;28;20430;-45
2023/12/12 07:10:00;;;;;;;2.43;1.90;;;8.90;1.00;;;;;;5091503;28;20200;-45
2023/12/12 07:12:26;;;;;;;2.57;2.13;;;8.90;1.00;;;;;;5081870;28;20596;-45
2023/12/12 07:14:51;;;;;;;2.80;1.90;;;8.90;1.00;;;;;;5093646;28;20591;-45
2023/12/12 07:17:17;;;;;;;3.10;2.10;;;8.90;1.00;;;;;;5093470;28;20195;-46
2023/12/12 07:19:43;;;;;;;3.20;2.67;;;8.90;1.00;;;;;;5094869;28;20212;-46
2023/12/12 07:22:09;;;;;;;3.23;2.20;;;8.90;1.00;;;;;;5092511;28;20543;-46
2023/12/12 07:24:35;;;;;;;2.77;2.20;;;8.90;1.00;;;;;;5090355;28;20507;-46
2023/12/12 07:27:01;;;;;;;4.33;2.20;;;9.00;1.00;;;;;;5089999;28;20237;-46
2023/12/12 07:29:27;;;;;;;4.00;2.37;;;9.00;1.00;;;;;;5091887;28;20458;-46
2023/12/12 07:31:52;;;;;;;2.97;1.93;;;9.00;1.00;;;;;;5092061;28;20434;-46
2023/12/12 07:34:18;;;;;;;4.30;2.30;;;9.00;1.00;;;;;;5091868;28;20291;-46
2023/12/12 07:36:45;;;;;;;3.53;2.30;;;9.00;1.00;;;;;;5092664;28;20180;-46
2023/12/12 07:39:11;;;;;;;4.93;2.67;;;9.10;1.00;;;;;;5093847;28;20172;-46
2023/12/12 07:41:36;;;;;;;2.60;1.97;;;9.10;1.00;;;;;;5092204;28;20433;-46
2023/12/12 07:44:05;;;;;;;6.13;5.37;;;9.10;1.00;;;;;;5091990;28;20192;-46
2023/12/12 07:46:37;;;;;;;9.30;6.80;;;9.10;1.00;;;;;;5091490;28;20180;-46
2023/12/12 07:49:03;;;;;;;16.97;11.40;;;9.20;1.00;;;;;;5088230;28;20477;-46
2023/12/12 07:51:29;;;;;;;17.90;11.40;;;9.20;1.00;;;;;;5082963;28;20430;-45
2023/12/12 07:53:55;;;;;;;15.90;9.70;;;9.20;1.00;;;;;;5093364;28;20411;-45
2023/12/12 07:56:20;;;;;;;11.93;8.13;;;9.20;1.00;;;;;;5094295;28;20499;-45
2023/12/12 07:58:47;;;;;;;9.80;6.80;;;9.20;1.00;;;;;;5086479;28;20478;-46
2023/12/12 08:01:16;;;;;;;7.00;5.30;;;9.30;1.00;;;;;;5092940;28;20312;-45
2023/12/12 08:03:41;;;;;;;5.90;4.23;;;9.40;1.00;;;;;;5069064;28;20525;-46
2023/12/12 08:06:08;;;;;;;5.30;3.33;;;9.40;1.00;;;;;;5093397;28;20529;-46
2023/12/12 08:08:33;;;;;;;4.00;3.60;;;9.40;1.00;;;;;;5069312;28;20180;-45
2023/12/12 08:11:00;;;;;;;3.87;3.00;;;9.50;1.00;;;;;;5093757;28;20438;-45
2023/12/12 08:13:26;;;;;;;3.90;3.10;;;9.50;1.00;;;;;;5083295;28;20573;-48
2023/12/12 08:15:52;;;;;;;3.23;2.70;;;9.50;1.00;;;;;;5093141;28;20568;-45
2023/12/12 08:18:17;;;;;;;6.20;2.30;;;9.60;99.90;;;;;;5092744;28;20481;-46
2023/12/12 08:20:43;;;;;;;5.03;2.03;;;10.80;1.00;;;;;;5093533;28;20173;-43
2023/12/12 08:23:09;;;;;;;6.03;2.10;;;11.80;1.00;;;;;;5092315;28;20554;-46
2023/12/12 08:25:35;;;;;;;4.90;1.70;;;12.60;1.00;;;;;;5093704;28;20227;-45
2023/12/12 08:28:01;;;;;;;2.50;1.57;;;13.30;1.00;;;;;;5092651;28;20457;-47
2023/12/12 08:30:26;;;;;;;7.87;2.00;;;14.20;99.90;;;;;;5094445;28;20489;-43
2023/12/12 08:32:52;;;;;;;3.07;1.80;;;14.90;1.00;;;;;;5094320;28;20179;-43
2023/12/12 08:35:18;;;;;;;3.23;2.00;;;15.10;1.00;;;;;;5094263;28;20487;-42
2023/12/12 08:37:44;;;;;;;3.10;2.10;;;14.80;1.00;;;;;;5093922;28;20291;-42
2023/12/12 08:40:10;;;;;;;2.97;1.80;;;14.40;39.80;;;;;;5095183;28;20240;-40
2023/12/12 08:42:36;;;;;;;4.23;2.40;;;13.80;99.90;;;;;;5094649;28;20784;-41
2023/12/12 08:45:02;;;;;;;3.70;2.20;;;13.40;99.90;;;;;;5089732;28;20422;-41
2023/12/12 08:47:28;;;;;;;3.47;2.53;;;13.00;99.90;;;;;;5084657;28;20275;-41
2023/12/12 08:49:54;;;;;;;2.53;2.10;;;12.60;1.00;;;;;;5092863;28;20564;-43
2023/12/12 08:52:19;;;;;;;3.20;1.97;;;12.30;1.00;;;;;;5093621;28;20430;-41
2023/12/12 08:54:45;;;;;;;2.73;1.80;;;12.10;1.00;;;;;;5093888;28;20436;-42
2023/12/12 08:57:13;;;;;;;3.00;2.20;;;11.90;1.00;;;;;;5092629;28;20177;-41
2023/12/12 08:59:39;;;;;;;2.17;1.97;;;11.70;1.00;;;;;;5087504;28;20707;-40
2023/12/12 09:02:05;;;;;;;2.37;1.73;;;11.60;1.00;;;;;;5093549;28;20430;-41
2023/12/12 09:04:32;;;;;;;2.40;1.80;;;11.50;1.00;;;;;;5093753;28;20241;-42
2023/12/12 09:06:58;;;;;;;3.53;2.10;;;11.40;13.90;;;;;;5070775;28;20200;-41
2023/12/12 09:09:26;;;;;;;3.57;1.90;;;11.30;44.80;;;;;;5092245;28;20646;-40
2023/12/12 09:11:51;;;;;;;3.30;1.73;;;11.20;99.90;;;;;;5093680;28;20415;-40
2023/12/12 09:14:17;;;;;;;1.83;1.20;;;11.20;99.90;;;;;;5092960;28;20432;-43
2023/12/12 09:16:42;;;;;;;1.83;1.50;;;11.20;37.50;;;;;;5092969;28;20183;-44
2023/12/12 09:19:09;;;;;;;3.00;1.33;;;11.10;99.90;;;;;;5089244;28;20450;-41
2023/12/12 09:21:35;;;;;;;6.00;2.93;;;11.00;99.90;;;;;;5093760;28;20485;-41
2023/12/12 09:24:01;;;;;;;4.27;3.40;;;11.10;99.90;;;;;;5090611;28;20429;-40
2023/12/12 09:26:27;;;;;;;4.13;2.90;;;11.00;99.90;;;;;;5091691;28;20764;-41
2023/12/12 09:28:52;;;;;;;5.80;2.63;;;10.90;99.90;;;;;;5094026;28;20218;-42
2023/12/12 09:31:28;;;;;;;3.43;2.50;;;10.90;99.90;;;;;;5092120;28;20482;-43
2023/12/12 09:33:54;;;;;;;3.93;2.50;;;10.80;99.90;;;;;;5087259;28;20180;-42
2023/12/12 09:36:20;;;;;;;4.37;2.53;;;10.70;1.00;;;;;;5091076;28;20435;-41
2023/12/12 09:38:46;;;;;;;3.43;2.33;;;10.60;1.00;;;;;;5093392;28;20855;-43
2023/12/12 09:41:17;;;;;;;3.17;2.53;;;10.50;99.90;;;;;;5092787;28;20192;-43
2023/12/12 09:43:44;;;;;;;2.50;1.43;;;10.40;1.00;;;;;;5085444;28;20180;-41
2023/12/12 09:46:11;;;;;;;3.77;1.80;;;10.30;99.90;;;;;;5092301;28;20635;-42
2023/12/12 09:48:38;;;;;;;2.63;1.90;;;10.20;1.00;;;;;;5087871;28;20430;-41
2023/12/12 09:51:06;;;;;;;2.67;1.67;;;10.10;15.60;;;;;;5095444;28;20410;-41
2023/12/12 09:53:35;;;;;;;2.27;1.70;;;10.10;99.90;;;;;;5087863;28;20406;-41
2023/12/12 09:56:03;;;;;;;2.70;2.17;;;10.00;1.00;;;;;;5094792;28;20426;-41
2023/12/12 09:58:29;;;;;;;7.30;2.20;;;10.00;1.00;;;;;;5095118;28;20422;-42
2023/12/12 10:00:55;;;;;;;2.87;2.13;;;10.00;1.00;;;;;;5091357;28;20442;-42
2023/12/12 10:03:21;;;;;;;4.43;1.80;;;10.00;1.00;;;;;;5095432;28;20430;-43
2023/12/12 10:05:52;;;;;;;4.40;2.07;;;10.00;40.70;;;;;;5090494;28;20415;-45
2023/12/12 10:08:18;;;;;;;6.53;2.60;;;10.00;99.90;;;;;;5096766;28;20426;-41
2023/12/12 10:10:44;;;;;;;2.57;1.70;;;10.00;99.90;;;;;;5091190;28;20581;-42
2023/12/12 10:13:10;;;;;;;3.00;2.00;;;9.90;99.90;;;;;;5096441;28;20184;-42
2023/12/12 10:15:36;;;;;;;4.03;1.90;;;9.90;99.90;;;;;;5098005;28;20217;-42
2023/12/12 10:18:02;;;;;;;3.10;2.07;;;9.90;99.90;;;;;;5097693;28;20502;-42
2023/12/12 10:20:29;;;;;;;2.80;2.33;;;9.90;99.90;;;;;;5089258;28;20176;-44
2023/12/12 10:22:59;;;;;;;3.87;2.47;;;9.90;1.00;;;;;;5096517;28;20451;-41
2023/12/12 10:25:25;;;;;;;2.80;2.40;;;9.90;1.00;;;;;;5095435;28;20432;-44
2023/12/12 10:27:53;;;;;;;2.60;2.13;;;9.90;1.00;;;;;;5090558;28;20549;-44
2023/12/12 10:30:22;;;;;;;2.90;1.90;;;10.00;1.00;;;;;;5096631;28;20474;-42
2023/12/12 10:32:51;;;;;;;2.43;1.37;;;10.00;1.00;;;;;;5073462;28;20508;-42
2023/12/12 10:35:19;;;;;;;1.63;1.20;;;10.00;1.00;;;;;;5095899;28;20587;-42
2023/12/12 10:37:45;;;;;;;1.83;1.37;;;10.00;1.00;;;;;;5096560;28;20427;-45
2023/12/12 10:40:23;;;;;;;1.20;1.07;;;10.00;1.00;;;;;;5095550;28;20757;-43
2023/12/12 10:42:50;;;;;;;1.90;1.47;;;10.00;29.10;;;;;;5090735;28;20508;-43
2023/12/12 10:45:17;;;;;;;2.60;1.67;;;10.00;65.10;;;;;;5095174;28;20506;-41
2023/12/12 10:47:48;;;;;;;1.27;1.10;;;10.00;99.60;;;;;;5087643;28;20429;-42
2023/12/12 10:50:15;;;;;;;2.00;1.60;;;10.00;99.90;;;;;;5094774;28;20473;-44
2023/12/12 10:52:43;;;;;;;1.60;1.30;;;10.00;99.90;;;;;;5094986;28;20526;-44
2023/12/12 10:55:10;;;;;;;1.50;1.30;;;10.10;99.90;;;;;;5092968;28;20426;-44
2023/12/12 10:57:44;;;;;;;2.53;1.60;;;10.10;99.90;;;;;;5093923;28;20437;-43
2023/12/12 11:00:14;;;;;;;6.57;2.70;;;10.20;99.90;;;;;;5091605;28;20437;-44
2023/12/12 11:02:42;;;;;;;3.13;2.37;;;10.30;99.90;;;;;;5087416;28;20415;-43
2023/12/12 11:05:10;;;;;;;3.87;2.33;;;10.30;99.90;;;;;;5093963;28;20503;-46
2023/12/12 11:07:36;;;;;;;2.80;1.77;;;10.40;99.90;;;;;;5092849;28;20434;-41
2023/12/12 11:10:08;;;;;;;2.53;1.60;;;10.50;99.90;;;;;;5092292;28;20565;-43
2023/12/12 11:12:36;;;;;;;2.70;1.73;;;10.60;99.90;;;;;;5095383;28;20518;-41
2023/12/12 11:15:04;;;;;;;1.53;1.43;;;10.70;99.90;;;;;;5090396;28;20482;-41
2023/12/12 11:17:30;;;;;;;2.40;1.30;;;10.80;99.90;;;;;;5086289;28;20406;-40
2023/12/12 11:19:56;;;;;;;2.00;1.00;;;11.00;67.30;;;;;;5095261;28;20434;-43
2023/12/12 11:22:50;;;;;;;2.27;1.07;;;11.10;29.00;;;;;;5094197;28;20184;-43
2023/12/12 11:25:22;;;;;;;1.30;0.97;;;11.20;1.00;;;;;;5090817;28;20446;-43
2023/12/12 11:27:50;;;;;;;1.93;1.07;;;11.30;1.00;;;;;;5087221;28;20507;-44
2023/12/12 11:30:18;;;;;;;1.77;1.20;;;11.30;1.00;;;;;;5093716;28;20469;-42
2023/12/12 11:32:43;;;;;;;1.63;1.10;;;11.40;1.00;;;;;;5071118;28;20472;-41
2023/12/12 11:35:32;;;;;;;1.60;1.10;;;11.50;1.00;;;;;;5091916;28;20820;-42
2023/12/12 11:38:03;;;;;;;2.17;1.47;;;11.60;1.00;;;;;;5092581;28;20426;-41
2023/12/12 11:40:29;;;;;;;1.50;1.10;;;11.60;1.00;;;;;;5092463;28;20434;-41
2023/12/12 11:43:28;;;;;;;1.53;1.00;;;11.60;1.00;;;;;;5094275;28;20438;-43
2023/12/12 11:45:54;;;;;;;2.17;1.10;;;11.70;1.00;;;;;;5026387;28;20469;-45
2023/12/12 11:48:20;;;;;;;2.60;1.10;;;11.70;1.00;;;;;;5092184;28;20438;-41
2023/12/12 11:50:46;;;;;;;2.10;1.20;;;11.70;1.00;;;;;;5095295;28;20470;-44
2023/12/12 11:53:11;;;;;;;1.73;1.30;;;11.70;1.00;;;;;;5094569;28;20185;-43
2023/12/12 11:55:42;;;;;;;3.77;1.83;;;11.70;1.00;;;;;;5095052;28;20176;-43
2023/12/12 11:58:11;;;;;;;2.20;1.50;;;11.70;1.00;;;;;;5092119;28;20570;-41
2023/12/12 12:00:38;;;;;;;9.53;3.27;;;11.60;1.00;;;;;;5094545;28;20445;-41
2023/12/12 12:03:04;;;;;;;6.90;2.00;;;11.60;1.00;;;;;;5095555;28;20427;-44
2023/12/12 12:05:31;;;;;;;9.63;2.93;;;11.70;1.00;;;;;;5085115;28;20828;-46
2023/12/12 12:07:57;;;;;;;5.27;1.60;;;12.40;1.00;;;;;;5094758;28;20458;-45
2023/12/12 12:10:24;;;;;;;3.50;1.80;;;12.90;1.00;;;;;;5093603;28;20509;-44
2023/12/12 12:12:59;;;;;;;2.33;1.30;;;13.40;1.00;;;;;;5093536;28;20585;-48
2023/12/12 12:15:26;;;;;;;3.97;2.07;;;14.00;1.00;;;;;;5094425;28;20523;-46
2023/12/12 12:17:52;;;;;;;2.00;1.23;;;14.30;99.90;;;;;;5093026;28;20406;-44
2023/12/12 12:20:18;;;;;;;2.70;1.33;;;14.60;1.00;;;;;;5091453;28;20446;-42
2023/12/12 12:22:44;;;;;;;1.40;1.10;;;14.90;99.90;;;;;;5086246;28;20456;-46
2023/12/12 12:25:10;;;;;;;2.60;1.00;;;15.10;1.00;;;;;;5094924;28;20430;-43
2023/12/12 12:27:54;;;;;;;2.17;0.83;;;15.20;1.00;;;;;;5091963;28;20257;-42
2023/12/12 12:30:19;;;;;;;1.80;1.20;;;15.00;99.90;;;;;;5092553;28;20214;-42
2023/12/12 12:32:58;;;;;;;2.70;0.90;;;14.70;1.00;;;;;;5086504;28;20418;-43
2023/12/12 12:35:24;;;;;;;1.43;0.97;;;14.30;1.00;;;;;;5092486;28;20180;-41
2023/12/12 12:37:49;;;;;;;1.10;0.70;;;13.90;1.00;;;;;;5091508;28;20594;-43
2023/12/12 12:40:37;;;;;;;1.77;1.10;;;13.60;99.90;;;;;;5093040;28;20464;-41
2023/12/12 12:43:12;;;;;;;1.80;1.00;;;13.30;1.00;;;;;;5092815;28;20201;-43
2023/12/12 12:45:38;;;;;;;2.60;1.17;;;13.00;99.90;;;;;;5094250;28;20863;-41
2023/12/12 12:48:05;;;;;;;1.40;1.07;;;12.80;99.90;;;;;;5086541;28;20422;-46
2023/12/12 12:50:30;;;;;;;2.43;1.40;;;12.70;1.00;;;;;;5088523;28;20204;-41
2023/12/12 12:52:58;;;;;;;1.40;1.03;;;12.60;1.00;;;;;;5089581;28;20430;-42
2023/12/12 12:55:24;;;;;;;1.33;0.70;;;12.50;99.90;;;;;;5088627;28;20349;-43
2023/12/12 12:57:50;;;;;;;3.20;1.10;;;12.50;99.90;;;;;;5088636;28;20494;-49
2023/12/12 13:00:17;;;;;;;1.50;0.87;;;12.40;99.90;;;;;;5086754;28;20518;-41
2023/12/12 13:02:44;;;;;;;0.97;0.70;;;12.40;99.90;;;;;;5089554;28;20180;-43
2023/12/12 13:05:10;;;;;;;2.10;1.30;;;12.30;99.90;;;;;;5091877;28;20437;-43